Flight Track Log - Related Links

Times and Time Zones

All times are in EDT time to prevent confusion due to time zone crossing. See the EJA951 flight status page for this flight to view local times or setup timezone preferences in your user account.

Time Position Orientation Groundspeed Altitude Reporting Facility
EDT Latitude Longitude Course Direction KTS MPH feet Rate Location/Type
Sat 11:18:47 AM 41.3128 -95.9064 323° Northwest 172 198 1,600  Level Minneapolis Center
Sat 11:19:23 AM 41.3375 -95.9314 323° Northwest 182 209 4,100 3,481 Climbing Minneapolis Center
Sat 11:20:08 AM 41.3531 -95.9653 301° West 238 274 6,300 3,344 Climbing Minneapolis Center
Sat 11:20:24 AM 41.3292 -95.9961 224° Southwest 272 313 7,500 3,738 Climbing Minneapolis Center
Sat 11:21:09 AM 41.2764 -95.9944 179° South 301 346 10,100 2,748 Climbing Minneapolis Center
Sat 11:22:11 AM 41.1875 -96.0233 194° South 320 368 12,400 1,951 Climbing Minneapolis Center
Sat 11:23:12 AM 41.0847 -96.0597 195° South 359 413 14,100 1,756 Climbing Minneapolis Center
Sat 11:24:14 AM 40.9697 -96.0958 193° South 402 463 16,000 1,902 Climbing Minneapolis Center
Sat 11:25:15 AM 40.8256 -96.1325 191° South 430 495 18,000 1,951 Climbing Minneapolis Center
Sat 11:26:17 AM 40.6972 -96.1522 187° South 451 519 20,000 1,887 Climbing Minneapolis Center
Sat 11:27:19 AM 40.5669 -96.1747 187° South 466 536 21,900 1,659 Climbing Minneapolis Center
Sat 11:28:20 AM 40.4311 -96.1967 187° South 480 552 23,400 1,707 Climbing Minneapolis Center
Sat 11:29:22 AM 40.2903 -96.2211 188° South 499 574 25,400 1,756 Climbing Minneapolis Center
Sat 11:30:23 AM 40.1478 -96.2461 188° South 511 588 27,000 1,463 Climbing Minneapolis Center
Sat 11:31:25 AM 40.0014 -96.2697 187° South 521 600 28,400 1,073 Climbing Minneapolis Center
Sat 11:32:26 AM 39.8519 -96.2942 187° South 533 613 29,200 1,122 Climbing Minneapolis Center
Sat 11:33:28 AM 39.6689 -96.3247 187° South 548 631 30,700 1,597 Climbing Minneapolis Center
Sat 11:34:30 AM 39.5194 -96.3492 187° South 546 628 32,500 1,805 Climbing Minneapolis Center
Sat 11:35:31 AM 39.3733 -96.3753 188° South 535 616 34,400 1,659 Climbing Minneapolis Center
Sat 11:36:33 AM 39.2306 -96.3972 187° South 524 603 35,900 1,463 Climbing Minneapolis Center
Sat 11:37:34 AM 39.0894 -96.4219 188° South 515 593 37,400 1,440 Climbing Minneapolis Center
Sat 11:39:03 AM 38.8744 -96.4575 187° South 500 575 39,500 1,033 Climbing Kansas City Center
Sat 11:40:05 AM 38.7431 -96.4781 187° South 497 572 40,000 242 Climbing Kansas City Center
Sat 11:41:07 AM 38.5814 -96.5031 187° South 517 595 40,000  Level Kansas City Center
Sat 11:42:09 AM 38.4356 -96.5278 188° South 530 610 40,000  Level Kansas City Center
Sat 11:43:11 AM 38.2864 -96.5508 187° South 537 618 40,000  Level Kansas City Center
Sat 11:44:12 AM 38.1367 -96.5747 187° South 539 620 40,000  Level Kansas City Center
Sat 11:45:14 AM 37.9864 -96.5983 187° South 540 621 40,000  Level Kansas City Center
Sat 11:46:16 AM 37.8367 -96.6222 187° South 538 619 40,000  Level Kansas City Center
Sat 11:47:18 AM 37.6872 -96.6458 187° South 538 619 40,000  Level Kansas City Center
Sat 11:48:20 AM 37.5106 -96.6722 187° South 532 612 40,000  Level Kansas City Center
Sat 11:49:22 AM 37.3611 -96.6953 187° South 534 615 40,000  Level Kansas City Center
Sat 11:50:24 AM 37.2092 -96.7203 187° South 542 624 40,000  Level Kansas City Center
Sat 11:51:25 AM 37.0711 -96.7431 187° South 544 626 40,000  Level Kansas City Center
Sat 11:52:27 AM 36.9072 -96.7689 187° South 545 627 40,000  Level Kansas City Center
Sat 11:53:29 AM 36.7483 -96.7914 186° South 528 608 40,000  Level Kansas City Center
Sat 11:54:31 AM 36.5997 -96.8153 187° South 534 615 40,000  Level Kansas City Center
Sat 11:55:33 AM 36.4483 -96.8381 187° South 536 617 40,000  Level Kansas City Center
Sat 11:56:35 AM 36.3008 -96.8600 187° South 534 615 40,000  Level Kansas City Center
Sat 11:57:36 AM 36.1536 -96.8825 187° South 532 612 40,000  Level Kansas City Center
Sat 11:58:38 AM 36.0058 -96.9039 187° South 533 613 40,000  Level Kansas City Center
Sat 11:59:40 AM 35.8589 -96.9258 187° South 532 612 40,000  Level Kansas City Center
Sat 12:00:42 PM 35.6811 -96.9517 187° South 533 613 40,000  Level Kansas City Center
Sat 12:01:43 PM 35.5322 -96.9731 187° South 534 615 40,000  Level Kansas City Center
Sat 12:02:45 PM 35.3806 -96.9761 181° South 536 617 40,000  Level Kansas City Center
Sat 12:03:47 PM 35.2281 -96.9714 179° South 540 621 40,000  Level Kansas City Center
Sat 12:04:49 PM 35.0769 -96.9675 179° South 539 620 40,000  Level Kansas City Center
Sat 12:05:50 PM 34.9267 -96.9633 179° South 537 618 40,000  Level Kansas City Center
Sat 12:06:52 PM 34.7764 -96.9592 179° South 538 619 40,000  Level Kansas City Center
Sat 12:07:54 PM 34.6267 -96.9536 178° South 537 618 40,000  Level Kansas City Center
Sat 12:08:55 PM 34.4769 -96.9497 179° South 537 618 40,000  Level Kansas City Center
Sat 12:10:08 PM 34.2664 -96.9461 179° South 537 618 40,000  Level Fort Worth Center
Sat 12:11:09 PM 34.1183 -96.9419 179° South 537 618 40,000  Level Fort Worth Center
Sat 12:12:08 PM 33.9742 -96.9375 179° South 531 611 40,000  Level Fort Worth Center
Sat 12:13:08 PM 33.8239 -96.9308 178° South 536 617 40,000  Level Fort Worth Center
Sat 12:14:09 PM 33.6758 -96.9267 179° South 536 617 40,000  Level Fort Worth Center
Sat 12:15:08 PM 33.5233 -96.9225 179° South 536 617 40,000  Level Fort Worth Center
Sat 12:16:08 PM 33.3772 -96.9183 179° South 536 617 40,000 -347 Level Fort Worth Center
Sat 12:17:09 PM 33.2333 -96.9514 191° South 523 602 39,300 -1,190 Descending Fort Worth Center
Sat 12:18:09 PM 33.1272 -97.0586 220° Southwest 488 562 37,600 -1,966 Descending Fort Worth Center
Sat 12:19:08 PM 32.9939 -97.1311 205° Southwest 518 596 35,400 -2,000 Descending Fort Worth Center
Sat 12:20:09 PM 32.8433 -97.1217 177° South 525 604 33,600 -1,700 Descending Fort Worth Center
Sat 12:21:08 PM 32.6847 -97.0875 170° South 533 613 32,000 -1,700 Descending Fort Worth Center
Sat 12:22:09 PM 32.5344 -97.0511 168° South 556 640 30,200 -1,884 Descending Fort Worth Center
Sat 12:23:09 PM 32.3858 -96.9756 157° South 562 647 28,200 -1,100 Descending Fort Worth Center
Sat 12:24:09 PM 32.2436 -96.9000 156° South 567 652 28,000 -101 Descending Fort Worth Center
Sat 12:25:08 PM 32.1033 -96.8247 156° South 562 647 28,000  Level Fort Worth Center
Sat 12:26:09 PM 31.9653 -96.7497 155° Southeast 557 641 28,000  Level Fort Worth Center
Sat 12:27:25 PM 31.8064 -96.6647 156° South 548 631 28,000  Level Houston Center
Sat 12:28:27 PM 31.6422 -96.5781 156° South 546 628 28,000  Level Houston Center
Sat 12:29:29 PM 31.5017 -96.5064 157° South 545 627 28,000 -387 Level Houston Center
Sat 12:30:31 PM 31.3572 -96.4428 159° South 545 627 27,200 -1,113 Descending Houston Center
Sat 12:31:33 PM 31.2175 -96.3536 151° Southeast 559 643 25,700 -1,500 Descending Houston Center
Sat 12:32:35 PM 31.0817 -96.2661 151° Southeast 554 638 24,100 -2,613 Descending Houston Center
Sat 12:33:37 PM 30.9539 -96.1825 151° Southeast 536 617 20,300 -3,610 Descending Houston Center
Sat 12:34:38 PM 30.8403 -96.1094 151° Southeast 483 556 16,700 -3,024 Descending Houston Center
Sat 12:35:40 PM 30.7314 -96.0408 152° Southeast 426 490 14,100 -2,543 Descending Houston Center
Sat 12:36:10 PM 30.6822 -96.0111 153° Southeast 366 421 12,800 -1,839 Descending Houston Center
Sat 12:36:42 PM 30.6447 -95.9850 149° Southeast 373 429 12,200 -873 Descending Houston Center
Sat 12:37:05 PM 30.6025 -95.9622 155° Southeast 364 419 12,000 -968 Descending Houston Center
Sat 12:37:44 PM 30.5531 -95.9294 150° Southeast 368 423 11,200 -1,309 Descending Houston Center
Sat 12:38:00 PM 30.5225 -95.9131 155° Southeast 355 409 10,800 -1,452 Descending Houston Center
Sat 12:38:46 PM 30.4681 -95.8797 152° Southeast 348 400 9,700 -1,611 Descending Houston Center
Sat 12:39:48 PM 30.3939 -95.8200 145° Southeast 327 376 7,900 -1,694 Descending Houston Center
Sat 12:40:50 PM 30.3256 -95.7639 145° Southeast 307 353 6,200 -1,895 Descending Houston Center
Sat 12:41:04 PM 30.2936 -95.7411 148° Southeast 299 344 5,500 -1,869 Descending Houston Center
Sat 12:41:51 PM 30.2444 -95.6997 144° Southeast 297 342 4,300 -991 Descending Houston Center
Sat 12:42:53 PM 30.1850 -95.6517 145° Southeast 266 306 3,700 -800 Descending Houston Center
Sat 12:43:06 PM 30.1714 -95.6419 148° Southeast 224 258 3,300 -1,378 Descending Houston Center
Sat 12:44:07 PM 30.1122 -95.6153 159° South 220 253 2,000 -703 Descending Houston Center
Sat 12:44:57 PM 30.0742 -95.6125 176° South 217 250 2,000  Level Houston Center
Sat 12:45:08 PM 30.0550 -95.6097 173° South 198 228 2,000 -194 Level Houston Center
Sat 12:45:59 PM 30.0200 -95.6039 172° South 205 236 1,800 -358 Descending Houston Center
Sat 12:46:15 PM 30.0086 -95.5839 123° Southeast 164 189 1,600 -590 Descending Houston Center
Sat 12:47:00 PM 30.0100 -95.5583 86° East 178 205 1,200 -643 Descending Houston Center
Sat 12:47:11 PM 30.0164 -95.5517 42° Northeast 137 158 1,000 -484 Descending Houston Center
Sat 12:48:02 PM 30.0444 -95.5536 357° North 158 182 700 -353 Descending Houston Center
Sat 12:50:00 PM 30.0500 -95.5500 221° Southwest  Level FlightAware Approximate

Login

Don't have an account? Register now (free) for customized features, flight alerts, and more!